createdAt,value
2018-07-27T00:00:04.261Z,24.85
2018-07-27T00:01:04.288Z,24.84
2018-07-27T00:02:04.268Z,24.84
2018-07-27T00:03:04.342Z,24.92
2018-07-27T00:04:04.362Z,24.89
2018-07-27T00:05:04.329Z,24.77
2018-07-27T00:06:04.351Z,24.82
2018-07-27T00:07:04.385Z,24.88
2018-07-27T00:08:04.391Z,24.84
2018-07-27T00:09:04.425Z,24.96
2018-07-27T00:10:04.405Z,24.85
2018-07-27T00:11:04.453Z,24.84
2018-07-27T00:12:04.461Z,24.88
2018-07-27T00:13:04.480Z,24.78
2018-07-27T00:14:04.465Z,24.71
2018-07-27T00:15:04.520Z,24.66
2018-07-27T00:16:04.502Z,24.59
2018-07-27T00:17:04.472Z,24.48
2018-07-27T00:18:04.535Z,24.58
2018-07-27T00:19:04.548Z,24.61
2018-07-27T00:20:04.630Z,24.75
2018-07-27T00:21:04.571Z,24.74
2018-07-27T00:22:04.580Z,24.74
2018-07-27T00:23:04.585Z,24.66
2018-07-27T00:24:04.595Z,24.66
2018-07-27T00:25:04.665Z,24.66
2018-07-27T00:26:04.639Z,24.59
2018-07-27T00:27:04.668Z,24.62
2018-07-27T00:28:04.679Z,24.58
2018-07-27T00:29:04.732Z,24.65
2018-07-27T00:30:04.738Z,24.69
2018-07-27T00:31:04.767Z,24.75
2018-07-27T00:32:04.757Z,24.75
2018-07-27T00:33:04.745Z,24.66
2018-07-27T00:34:04.746Z,24.62
2018-07-27T00:35:04.874Z,24.61
2018-07-27T00:36:04.834Z,24.61
2018-07-27T00:37:04.838Z,24.65
2018-07-27T00:38:04.847Z,24.62
2018-07-27T00:39:04.880Z,24.51
2018-07-27T00:40:04.844Z,24.44
2018-07-27T00:41:04.852Z,24.48
2018-07-27T00:42:04.877Z,24.46
2018-07-27T00:43:04.883Z,24.41
2018-07-27T00:44:04.946Z,24.43
2018-07-27T00:45:04.900Z,24.47
2018-07-27T00:46:05.057Z,24.46
2018-07-27T00:47:05.001Z,24.40
2018-07-27T00:48:04.956Z,24.36
2018-07-27T00:49:05.076Z,24.38
2018-07-27T00:50:05.001Z,24.44
2018-07-27T00:51:04.992Z,24.31
2018-07-27T00:52:05.070Z,24.40
2018-07-27T00:53:05.046Z,24.47
2018-07-27T00:54:05.111Z,24.46
2018-07-27T00:55:05.088Z,24.41
2018-07-27T00:56:05.179Z,24.46
2018-07-27T00:57:05.157Z,24.32
2018-07-27T00:58:05.097Z,24.31
2018-07-27T00:59:05.113Z,24.32
2018-07-27T01:00:05.163Z,24.38
2018-07-27T01:01:05.179Z,24.43
2018-07-27T01:02:05.169Z,24.32
2018-07-27T01:03:05.192Z,24.28
2018-07-27T01:04:05.168Z,24.21
2018-07-27T01:05:05.215Z,24.25
2018-07-27T01:06:05.267Z,24.31
2018-07-27T01:07:05.251Z,24.32
2018-07-27T01:08:05.246Z,24.18
2018-07-27T01:09:05.336Z,24.19
2018-07-27T01:10:05.328Z,24.22
2018-07-27T01:11:05.294Z,24.13
2018-07-27T01:12:05.343Z,23.99
2018-07-27T01:13:05.330Z,24.01
2018-07-27T01:14:05.334Z,23.91
2018-07-27T01:15:05.340Z,23.88
2018-07-27T01:16:05.371Z,23.92
2018-07-27T01:17:05.398Z,23.91
2018-07-27T01:18:05.380Z,23.94
2018-07-27T01:19:05.478Z,24.01
2018-07-27T01:20:05.449Z,24.00
2018-07-27T01:21:05.442Z,24.04
2018-07-27T01:22:05.434Z,24.03
2018-07-27T01:23:05.494Z,24.06
2018-07-27T01:24:05.511Z,24.09
2018-07-27T01:25:05.563Z,23.99
2018-07-27T01:26:05.519Z,23.94
2018-07-27T01:27:05.537Z,24.03
2018-07-27T01:28:05.507Z,24.03
2018-07-27T01:29:05.555Z,23.91
2018-07-27T01:30:05.568Z,24.01
2018-07-27T01:31:05.644Z,24.06
2018-07-27T01:32:05.566Z,24.00
2018-07-27T01:33:05.637Z,23.95
2018-07-27T01:34:05.598Z,23.88
2018-07-27T01:35:05.645Z,23.95
2018-07-27T01:36:05.706Z,24.00
2018-07-27T01:37:05.697Z,24.00
2018-07-27T01:38:05.695Z,23.99
2018-07-27T01:39:05.728Z,23.91
2018-07-27T01:40:05.705Z,23.84
2018-07-27T01:41:05.712Z,23.82
2018-07-27T01:42:05.730Z,23.84
2018-07-27T01:43:05.980Z,23.84
2018-07-27T01:44:05.787Z,23.81
2018-07-27T01:45:05.801Z,23.69
2018-07-27T01:46:05.770Z,23.66
2018-07-27T01:47:05.792Z,23.77
2018-07-27T01:48:05.796Z,23.79
2018-07-27T01:49:05.892Z,23.92
2018-07-27T01:50:05.860Z,23.89
2018-07-27T01:51:05.889Z,23.91
2018-07-27T01:52:05.871Z,24.01
2018-07-27T01:53:05.918Z,23.88
2018-07-27T01:54:05.898Z,23.92
2018-07-27T01:55:05.923Z,23.94
2018-07-27T01:56:05.939Z,23.95
2018-07-27T01:57:05.903Z,23.99
2018-07-27T01:58:05.949Z,23.94
2018-07-27T01:59:05.932Z,23.96
2018-07-27T02:00:06.084Z,24.03
2018-07-27T02:01:05.990Z,24.03
2018-07-27T02:02:05.993Z,24.01
2018-07-27T02:03:06.014Z,24.06
2018-07-27T02:04:06.010Z,24.07
2018-07-27T02:05:06.014Z,23.94
2018-07-27T02:06:06.085Z,23.86
2018-07-27T02:07:06.126Z,23.74
2018-07-27T02:08:06.075Z,23.84
2018-07-27T02:09:06.067Z,23.92
2018-07-27T02:10:06.101Z,24.01
2018-07-27T02:11:06.128Z,24.03
2018-07-27T02:12:06.407Z,24.03
2018-07-27T02:13:06.235Z,23.92
2018-07-27T02:14:06.218Z,23.88
2018-07-27T02:15:06.215Z,23.92
2018-07-27T02:16:06.201Z,23.92
2018-07-27T02:17:06.218Z,23.76
2018-07-27T02:18:06.219Z,23.76
2018-07-27T02:19:06.327Z,23.82
2018-07-27T02:20:06.307Z,23.74
2018-07-27T02:21:06.245Z,23.82
2018-07-27T02:22:06.276Z,23.64
2018-07-27T02:23:06.330Z,23.59
2018-07-27T02:24:06.366Z,23.59
2018-07-27T02:25:06.395Z,23.64
2018-07-27T02:26:06.342Z,23.64
2018-07-27T02:27:06.356Z,23.51
2018-07-27T02:28:06.351Z,23.49
2018-07-27T02:29:06.532Z,23.49
2018-07-27T02:30:06.438Z,23.48
2018-07-27T02:31:06.420Z,23.36
2018-07-27T02:32:06.423Z,23.42
2018-07-27T02:33:06.452Z,23.48
2018-07-27T02:34:06.469Z,23.49
2018-07-27T02:35:06.532Z,23.51
2018-07-27T02:36:06.468Z,23.55
2018-07-27T02:37:06.526Z,23.37
2018-07-27T02:38:06.493Z,23.36
2018-07-27T02:39:06.512Z,23.40
2018-07-27T02:40:06.615Z,23.39
2018-07-27T02:41:06.576Z,23.42
2018-07-27T02:42:06.641Z,23.40
2018-07-27T02:43:06.589Z,23.42
2018-07-27T02:44:06.617Z,23.44
2018-07-27T02:45:06.638Z,23.44
2018-07-27T02:46:06.622Z,23.36
2018-07-27T02:47:06.653Z,23.49
2018-07-27T02:48:06.783Z,23.29
2018-07-27T02:49:06.706Z,23.26
2018-07-27T02:50:06.717Z,23.42
2018-07-27T02:51:06.678Z,23.42
2018-07-27T02:52:06.727Z,23.36
2018-07-27T02:53:06.787Z,23.37
2018-07-27T02:54:06.741Z,23.42
2018-07-27T02:55:06.759Z,23.37
2018-07-27T02:56:06.752Z,23.23
2018-07-27T02:57:06.785Z,23.20
2018-07-27T02:58:06.810Z,23.10
2018-07-27T02:59:06.786Z,23.13
2018-07-27T03:00:06.847Z,23.20
2018-07-27T03:01:06.887Z,23.33
2018-07-27T03:02:06.835Z,23.33
2018-07-27T03:03:06.863Z,23.23
2018-07-27T03:04:06.860Z,23.36
2018-07-27T03:05:06.930Z,23.26
2018-07-27T03:06:06.980Z,23.11
2018-07-27T03:07:06.906Z,23.32
2018-07-27T03:08:06.924Z,23.16
2018-07-27T03:09:06.967Z,23.08
2018-07-27T03:10:06.959Z,23.16
2018-07-27T03:11:06.994Z,23.01
2018-07-27T03:12:06.983Z,23.02
2018-07-27T03:13:07.038Z,23.10
2018-07-27T03:14:07.053Z,23.08
2018-07-27T03:15:07.029Z,23.08
2018-07-27T03:16:07.038Z,23.08
2018-07-27T03:17:07.119Z,23.10
2018-07-27T03:18:07.086Z,23.17
2018-07-27T03:19:07.097Z,23.10
2018-07-27T03:20:07.129Z,23.14
2018-07-27T03:21:07.081Z,23.10
2018-07-27T03:22:07.139Z,23.08
2018-07-27T03:23:07.142Z,23.32
2018-07-27T03:24:07.158Z,23.32
2018-07-27T03:25:07.198Z,23.29
2018-07-27T03:26:07.298Z,23.40
2018-07-27T03:27:07.187Z,23.28
2018-07-27T03:28:07.208Z,23.28
2018-07-27T03:29:07.350Z,23.21
2018-07-27T03:30:07.289Z,23.21
2018-07-27T03:31:07.275Z,23.13
2018-07-27T03:32:07.266Z,23.10
2018-07-27T03:33:07.338Z,23.08
2018-07-27T03:34:07.354Z,23.21
2018-07-27T03:35:07.329Z,23.20
2018-07-27T03:36:07.335Z,23.13
2018-07-27T03:37:07.387Z,23.29
2018-07-27T03:38:07.370Z,23.26
2018-07-27T03:39:07.368Z,23.17
2018-07-27T03:40:07.403Z,23.26
2018-07-27T03:41:07.413Z,23.28
2018-07-27T03:42:07.557Z,23.36
2018-07-27T03:43:07.470Z,23.29
2018-07-27T03:44:07.451Z,23.26
2018-07-27T03:45:07.491Z,23.28
2018-07-27T03:46:07.484Z,23.18
2018-07-27T03:47:07.505Z,23.23
2018-07-27T03:48:07.563Z,23.28
2018-07-27T03:49:07.538Z,23.34
2018-07-27T03:50:07.513Z,23.25
2018-07-27T03:51:07.536Z,23.28
2018-07-27T03:52:07.560Z,23.21
2018-07-27T03:53:07.605Z,23.25
2018-07-27T03:54:07.573Z,23.28
2018-07-27T03:55:07.577Z,23.29
2018-07-27T03:56:07.631Z,23.26
2018-07-27T03:57:07.676Z,23.28
2018-07-27T03:58:07.630Z,23.36
2018-07-27T03:59:07.612Z,23.29
2018-07-27T04:00:07.695Z,23.29
2018-07-27T04:01:07.678Z,23.32
2018-07-27T04:02:07.681Z,23.54
2018-07-27T04:03:07.743Z,23.49
2018-07-27T04:04:07.711Z,23.40
2018-07-27T04:05:07.748Z,23.45
2018-07-27T04:06:07.752Z,23.40
2018-07-27T04:07:07.773Z,23.37
2018-07-27T04:08:07.773Z,23.52
2018-07-27T04:09:07.819Z,23.49
2018-07-27T04:10:07.834Z,23.48
2018-07-27T04:11:07.817Z,23.54
2018-07-27T04:12:07.834Z,23.55
2018-07-27T04:13:07.808Z,23.55
2018-07-27T04:14:07.868Z,23.58
2018-07-27T04:15:07.867Z,23.56
2018-07-27T04:16:07.912Z,23.59
2018-07-27T04:17:07.887Z,23.62
2018-07-27T04:18:07.898Z,23.66
2018-07-27T04:19:07.967Z,23.63
2018-07-27T04:20:07.964Z,23.58
2018-07-27T04:21:07.956Z,23.67
2018-07-27T04:22:07.951Z,23.64
2018-07-27T04:23:07.967Z,23.77
2018-07-27T04:24:07.971Z,23.82
2018-07-27T04:25:08.020Z,23.84
2018-07-27T04:26:08.048Z,23.74
2018-07-27T04:27:08.021Z,23.76
2018-07-27T04:28:08.042Z,23.86
2018-07-27T04:29:08.048Z,23.70
2018-07-27T04:30:08.077Z,23.84
2018-07-27T04:31:08.079Z,23.94
2018-07-27T04:32:08.132Z,24.01
2018-07-27T04:33:08.137Z,24.09
2018-07-27T04:34:08.136Z,24.13
2018-07-27T04:35:08.154Z,24.26
2018-07-27T04:36:08.186Z,24.19
2018-07-27T04:37:08.220Z,24.16
2018-07-27T04:38:08.236Z,24.24
2018-07-27T04:39:08.192Z,24.29
2018-07-27T04:40:08.186Z,24.19
2018-07-27T04:41:08.264Z,24.36
2018-07-27T04:42:08.239Z,24.32
2018-07-27T04:43:08.280Z,24.21
2018-07-27T04:44:08.261Z,24.32
2018-07-27T04:45:08.295Z,24.34
2018-07-27T04:46:08.299Z,24.40
2018-07-27T04:47:08.287Z,24.47
2018-07-27T04:48:08.348Z,24.46
2018-07-27T04:49:08.361Z,24.48
2018-07-27T04:50:08.345Z,24.44
2018-07-27T04:51:08.370Z,24.50
2018-07-27T04:52:08.372Z,24.51
2018-07-27T04:53:08.420Z,24.56
2018-07-27T04:54:08.437Z,24.56
2018-07-27T04:55:08.436Z,24.59
2018-07-27T04:56:08.554Z,24.61
2018-07-27T04:57:08.441Z,24.69
2018-07-27T04:58:08.494Z,24.69
2018-07-27T04:59:08.532Z,24.99
2018-07-27T05:00:08.502Z,24.94
2018-07-27T05:01:08.510Z,25.04
2018-07-27T05:02:08.526Z,24.96
2018-07-27T05:03:08.690Z,25.11
2018-07-27T05:04:08.607Z,25.11
2018-07-27T05:05:08.594Z,25.19
2018-07-27T05:06:08.583Z,25.22
2018-07-27T05:07:08.613Z,25.25
2018-07-27T05:08:08.611Z,25.30
2018-07-27T05:09:08.631Z,25.46
2018-07-27T05:10:08.686Z,25.52
2018-07-27T05:11:08.690Z,25.51
2018-07-27T05:12:08.804Z,25.41
2018-07-27T05:13:08.733Z,25.56
2018-07-27T05:14:08.771Z,25.55
2018-07-27T05:15:09.019Z,25.70
2018-07-27T05:16:08.815Z,25.73
2018-07-27T05:17:08.751Z,25.89
2018-07-27T05:18:08.835Z,25.99
2018-07-27T05:19:08.789Z,25.98
2018-07-27T05:20:08.804Z,25.98
2018-07-27T05:21:08.825Z,26.01
2018-07-27T05:22:09.011Z,26.18
2018-07-27T05:23:08.846Z,26.19
2018-07-27T05:24:08.860Z,26.26
2018-07-27T05:25:08.892Z,26.48
2018-07-27T05:26:08.937Z,26.52
2018-07-27T05:27:08.912Z,26.64
2018-07-27T05:28:08.942Z,26.66
2018-07-27T05:29:08.998Z,26.85
2018-07-27T05:30:08.939Z,26.83
2018-07-27T05:31:09.008Z,26.96
2018-07-27T05:32:08.992Z,26.88
2018-07-27T05:33:09.037Z,27.04
2018-07-27T05:34:09.027Z,27.22
2018-07-27T05:35:09.027Z,27.16
2018-07-27T05:36:09.069Z,27.30
2018-07-27T05:37:09.085Z,27.35
2018-07-27T05:38:09.148Z,27.48
2018-07-27T05:39:09.115Z,27.68
2018-07-27T05:40:09.124Z,27.71
2018-07-27T05:41:09.184Z,27.82
2018-07-27T05:42:09.161Z,27.98
2018-07-27T05:43:09.269Z,28.06
2018-07-27T05:44:09.224Z,27.91
2018-07-27T05:45:09.212Z,28.03
2018-07-27T05:46:09.216Z,28.03
2018-07-27T05:47:09.288Z,27.97
2018-07-27T05:48:09.288Z,28.12
2018-07-27T05:49:09.312Z,28.12
2018-07-27T05:50:09.290Z,28.28
2018-07-27T05:51:09.338Z,28.34
2018-07-27T05:52:09.444Z,28.46
2018-07-27T05:53:09.352Z,28.52
2018-07-27T05:54:09.399Z,28.72
2018-07-27T05:55:10.213Z,28.71
2018-07-27T05:56:09.704Z,28.92
2018-07-27T05:57:09.486Z,28.92
2018-07-27T05:58:09.571Z,28.82
2018-07-27T05:59:09.461Z,28.87
2018-07-27T06:00:09.491Z,28.92
2018-07-27T06:01:09.590Z,29.03
2018-07-27T06:02:10.438Z,29.28
2018-07-27T06:03:09.521Z,29.28
2018-07-27T06:04:09.566Z,28.96
2018-07-27T06:05:09.578Z,29.21
2018-07-27T06:06:09.612Z,29.32
2018-07-27T06:07:09.714Z,29.13
2018-07-27T06:08:09.609Z,29.13
2018-07-27T06:09:09.615Z,29.28
2018-07-27T06:10:09.640Z,29.35
2018-07-27T06:11:09.681Z,29.40
2018-07-27T06:12:09.728Z,29.34
2018-07-27T06:13:09.715Z,29.58
2018-07-27T06:14:09.787Z,29.64
2018-07-27T06:15:09.739Z,29.67
2018-07-27T06:16:09.813Z,29.53
2018-07-27T06:17:09.775Z,29.62
2018-07-27T06:18:09.932Z,29.76
2018-07-27T06:19:09.826Z,29.62
2018-07-27T06:20:09.819Z,29.55
2018-07-27T06:21:09.905Z,29.47
2018-07-27T06:22:09.899Z,29.71
2018-07-27T06:23:09.896Z,29.74
2018-07-27T06:24:10.008Z,29.76
2018-07-27T06:25:09.920Z,29.74
2018-07-27T06:26:09.994Z,29.83
2018-07-27T06:27:09.963Z,29.90
2018-07-27T06:28:10.048Z,29.86
2018-07-27T06:29:10.053Z,29.95
2018-07-27T06:30:10.080Z,30.02
2018-07-27T06:31:10.035Z,29.96
2018-07-27T06:32:10.091Z,30.06
2018-07-27T06:33:10.086Z,30.18
2018-07-27T06:34:10.106Z,29.96
2018-07-27T06:35:10.152Z,29.96
2018-07-27T06:36:10.132Z,30.05
2018-07-27T06:37:10.172Z,29.98
2018-07-27T06:38:10.402Z,30.13
2018-07-27T06:39:10.388Z,30.13
2018-07-27T06:40:10.878Z,30.18
2018-07-27T06:41:10.247Z,30.20
2018-07-27T06:42:10.506Z,30.32
2018-07-27T06:43:10.321Z,30.36
2018-07-27T06:44:10.691Z,30.36
2018-07-27T06:45:10.401Z,30.33
2018-07-27T06:46:10.354Z,30.35
2018-07-27T06:47:10.513Z,30.38
2018-07-27T06:48:10.378Z,30.33
2018-07-27T06:49:10.381Z,30.36
2018-07-27T06:50:10.399Z,30.43
2018-07-27T06:51:10.414Z,30.21
2018-07-27T06:52:10.457Z,30.29
2018-07-27T06:53:10.454Z,30.31
2018-07-27T06:54:10.553Z,30.40
2018-07-27T06:55:10.485Z,30.32
2018-07-27T06:56:10.499Z,30.08
2018-07-27T06:57:10.549Z,30.01
2018-07-27T06:58:10.538Z,30.11
2018-07-27T06:59:10.629Z,29.83
2018-07-27T07:00:10.603Z,29.90
2018-07-27T07:01:10.690Z,29.80
2018-07-27T07:02:10.627Z,29.80
2018-07-27T07:03:10.642Z,29.84
2018-07-27T07:04:10.746Z,29.96
2018-07-27T07:05:10.703Z,29.92
2018-07-27T07:06:10.702Z,29.80
2018-07-27T07:07:10.762Z,29.57
2018-07-27T07:08:11.373Z,29.64
2018-07-27T07:09:10.784Z,29.53
2018-07-27T07:10:10.773Z,29.62
2018-07-27T07:11:10.773Z,29.57
2018-07-27T07:12:10.846Z,29.42
2018-07-27T07:13:10.869Z,29.30
2018-07-27T07:14:10.882Z,29.37
2018-07-27T07:15:10.912Z,29.34
2018-07-27T07:16:10.881Z,29.42
2018-07-27T07:17:10.921Z,29.37
2018-07-27T07:18:10.924Z,29.53
2018-07-27T07:19:10.984Z,29.47
2018-07-27T07:20:10.972Z,29.50
2018-07-27T07:21:11.012Z,29.39
2018-07-27T07:22:10.995Z,29.52
2018-07-27T07:23:11.094Z,29.47
2018-07-27T07:24:11.052Z,29.28
2018-07-27T07:25:11.167Z,29.20
2018-07-27T07:26:11.371Z,29.22
2018-07-27T07:27:11.150Z,29.02
2018-07-27T07:28:11.129Z,28.93
2018-07-27T07:29:11.159Z,28.92
2018-07-27T07:30:11.132Z,29.00
2018-07-27T07:31:11.171Z,29.15
2018-07-27T07:32:11.233Z,28.96
2018-07-27T07:33:11.205Z,29.00
2018-07-27T07:34:11.219Z,28.97
2018-07-27T07:35:11.226Z,28.82
2018-07-27T07:36:11.274Z,28.78
2018-07-27T07:37:11.286Z,28.86
2018-07-27T07:38:11.285Z,28.77
2018-07-27T07:39:11.405Z,28.86
2018-07-27T07:40:11.331Z,28.82
2018-07-27T07:41:11.346Z,28.80
2018-07-27T07:42:11.358Z,28.83
2018-07-27T07:43:11.435Z,28.71
2018-07-27T07:44:11.451Z,28.72
2018-07-27T07:45:11.479Z,28.60
2018-07-27T07:46:11.407Z,28.74
2018-07-27T07:47:11.458Z,28.64
2018-07-27T07:48:11.456Z,28.50
2018-07-27T07:49:11.929Z,28.62
2018-07-27T07:50:12.151Z,28.59
2018-07-27T07:51:11.550Z,28.49
2018-07-27T07:52:11.658Z,28.50
2018-07-27T07:53:11.619Z,28.62
2018-07-27T07:54:11.568Z,28.68
2018-07-27T07:55:11.635Z,28.62
2018-07-27T07:56:11.935Z,28.57
2018-07-27T07:57:11.630Z,28.72
2018-07-27T07:58:12.016Z,28.67
2018-07-27T07:59:11.652Z,28.59
2018-07-27T08:00:11.697Z,28.68
2018-07-27T08:01:11.681Z,28.70
2018-07-27T08:02:12.171Z,28.62
2018-07-27T08:03:11.785Z,28.62
2018-07-27T08:04:11.828Z,28.57
2018-07-27T08:05:11.984Z,28.57
2018-07-27T08:06:11.914Z,28.53
2018-07-27T08:07:12.051Z,28.37
2018-07-27T08:08:11.870Z,28.45
2018-07-27T08:09:12.029Z,28.41
2018-07-27T08:10:11.870Z,28.53
2018-07-27T08:11:12.207Z,28.49
2018-07-27T08:12:11.970Z,28.56
2018-07-27T08:13:11.964Z,28.55
2018-07-27T08:14:12.024Z,28.64
2018-07-27T08:15:12.025Z,28.59
2018-07-27T08:16:12.132Z,28.59
2018-07-27T08:17:12.143Z,28.55
2018-07-27T08:18:12.665Z,28.60
2018-07-27T08:19:12.006Z,28.65
2018-07-27T08:20:12.042Z,28.60
2018-07-27T08:21:12.020Z,28.57
2018-07-27T08:22:12.091Z,28.64
2018-07-27T08:23:12.075Z,28.62
2018-07-27T08:24:12.128Z,28.65
2018-07-27T08:25:12.118Z,28.53
2018-07-27T08:26:12.216Z,28.60
2018-07-27T08:27:12.148Z,28.40
2018-07-27T08:28:12.155Z,28.56
2018-07-27T08:29:12.198Z,28.47
2018-07-27T08:30:12.239Z,28.57
2018-07-27T08:31:12.223Z,28.53
2018-07-27T08:32:12.230Z,28.55
2018-07-27T08:33:12.249Z,28.52
2018-07-27T08:34:12.235Z,28.57
2018-07-27T08:35:12.332Z,28.62
2018-07-27T08:36:12.291Z,28.62
2018-07-27T08:37:12.385Z,28.65
2018-07-27T08:38:12.349Z,28.67
2018-07-27T08:39:12.342Z,28.64
2018-07-27T08:40:12.340Z,28.72
2018-07-27T08:41:12.383Z,28.72
2018-07-27T08:42:12.428Z,28.59
2018-07-27T08:43:12.404Z,28.62
2018-07-27T08:44:12.452Z,28.57
2018-07-27T08:45:12.450Z,28.74
2018-07-27T08:46:12.473Z,28.68
2018-07-27T08:47:12.534Z,28.68
2018-07-27T08:48:12.512Z,28.77
2018-07-27T08:49:12.550Z,28.71
2018-07-27T08:50:12.566Z,28.82
2018-07-27T08:51:12.526Z,28.72
2018-07-27T08:52:12.562Z,28.77
2018-07-27T08:53:12.593Z,28.82
2018-07-27T08:54:12.615Z,28.86
2018-07-27T08:55:12.712Z,28.89
2018-07-27T08:56:12.667Z,28.86
2018-07-27T08:57:12.670Z,28.97
2018-07-27T08:58:12.674Z,29.02
2018-07-27T08:59:12.894Z,29.02
2018-07-27T09:00:12.740Z,29.07
2018-07-27T09:01:12.747Z,29.10
2018-07-27T09:02:12.780Z,29.07
2018-07-27T09:03:12.782Z,29.10
2018-07-27T09:04:12.816Z,29.05
2018-07-27T09:05:12.786Z,29.10
2018-07-27T09:06:12.812Z,29.12
2018-07-27T09:07:12.850Z,29.02
2018-07-27T09:08:12.831Z,28.94
2018-07-27T09:09:13.070Z,29.07
2018-07-27T09:10:12.923Z,29.18
2018-07-27T09:11:12.935Z,29.15
2018-07-27T09:12:13.175Z,29.21
2018-07-27T09:13:12.957Z,29.28
2018-07-27T09:14:12.976Z,29.30
2018-07-27T09:15:12.967Z,29.28
2018-07-27T09:16:12.984Z,29.31
2018-07-27T09:17:13.005Z,29.25
2018-07-27T09:18:13.029Z,29.30
2018-07-27T09:19:13.098Z,29.28
2018-07-27T09:20:13.024Z,29.39
2018-07-27T09:21:13.081Z,29.37
2018-07-27T09:22:13.097Z,29.28
2018-07-27T09:23:13.116Z,29.37
2018-07-27T09:24:13.250Z,29.39
2018-07-27T09:25:13.458Z,29.44
2018-07-27T09:26:13.165Z,29.58
2018-07-27T09:27:13.200Z,29.46
2018-07-27T09:28:13.198Z,29.57
2018-07-27T09:29:13.246Z,29.55
2018-07-27T09:30:13.276Z,29.53
2018-07-27T09:31:13.276Z,29.62
2018-07-27T09:32:13.318Z,29.52
2018-07-27T09:33:13.267Z,29.58
2018-07-27T09:34:13.331Z,29.58
2018-07-27T09:35:13.376Z,29.57
2018-07-27T09:36:13.380Z,29.57
2018-07-27T09:37:13.338Z,29.55
2018-07-27T09:38:13.402Z,29.59
2018-07-27T09:39:13.408Z,29.69
2018-07-27T09:40:13.451Z,29.65
2018-07-27T09:41:13.463Z,29.67
2018-07-27T09:42:13.442Z,29.62
2018-07-27T09:43:13.465Z,29.74
2018-07-27T09:44:13.688Z,29.71
2018-07-27T09:45:13.505Z,29.58
2018-07-27T09:46:13.573Z,29.58
2018-07-27T09:47:13.507Z,29.64
2018-07-27T09:48:13.584Z,29.74
2018-07-27T09:49:13.585Z,29.58
2018-07-27T09:50:13.591Z,29.68
2018-07-27T09:51:13.583Z,29.61
2018-07-27T09:52:13.647Z,29.64
2018-07-27T09:53:13.700Z,29.76
2018-07-27T09:54:13.649Z,29.68
2018-07-27T09:55:13.689Z,29.73
2018-07-27T09:56:13.778Z,29.67
2018-07-27T09:57:13.713Z,29.64
2018-07-27T09:58:13.789Z,29.64
2018-07-27T09:59:13.796Z,29.65
2018-07-27T10:00:13.797Z,29.71
2018-07-27T10:01:13.841Z,29.62
2018-07-27T10:02:13.816Z,29.47
2018-07-27T10:03:13.833Z,29.49
2018-07-27T10:04:13.868Z,29.53
2018-07-27T10:05:13.868Z,29.49
2018-07-27T10:06:13.947Z,29.40
2018-07-27T10:07:13.941Z,29.44
2018-07-27T10:08:13.921Z,29.47
2018-07-27T10:09:13.948Z,29.40
2018-07-27T10:10:13.974Z,29.40
2018-07-27T10:11:13.981Z,29.35
2018-07-27T10:12:13.968Z,29.35
2018-07-27T10:13:14.010Z,29.40
2018-07-27T10:14:14.012Z,29.30
2018-07-27T10:15:14.058Z,29.35
2018-07-27T10:16:14.073Z,29.46
2018-07-27T10:17:14.032Z,29.35
2018-07-27T10:18:14.073Z,29.30
2018-07-27T10:19:14.097Z,29.34
2018-07-27T10:20:14.228Z,29.40
2018-07-27T10:21:14.169Z,29.43
2018-07-27T10:22:14.295Z,29.43
2018-07-27T10:23:14.190Z,29.47
2018-07-27T10:24:14.248Z,29.46
2018-07-27T10:25:14.255Z,29.58
2018-07-27T10:26:14.421Z,29.59
2018-07-27T10:27:14.263Z,29.59
2018-07-27T10:28:14.253Z,29.61
2018-07-27T10:29:14.294Z,29.65
2018-07-27T10:30:14.321Z,29.62
2018-07-27T10:31:14.345Z,29.67
2018-07-27T10:32:14.353Z,29.68
2018-07-27T10:33:14.333Z,29.77
2018-07-27T10:34:14.351Z,29.87
2018-07-27T10:35:14.400Z,29.77
2018-07-27T10:36:14.388Z,29.77
2018-07-27T10:37:14.468Z,29.80
2018-07-27T10:38:14.409Z,29.84
2018-07-27T10:39:14.418Z,29.92
2018-07-27T10:40:14.467Z,29.95
2018-07-27T10:41:14.564Z,29.95
2018-07-27T10:42:14.557Z,29.99
2018-07-27T10:43:14.636Z,30.02
2018-07-27T10:44:14.552Z,29.98
2018-07-27T10:45:14.572Z,29.99
2018-07-27T10:46:14.619Z,29.94
2018-07-27T10:47:14.581Z,29.87
2018-07-27T10:48:14.650Z,29.92
2018-07-27T10:49:14.665Z,29.92
2018-07-27T10:50:14.765Z,29.92
2018-07-27T10:51:14.700Z,29.87
2018-07-27T10:52:14.704Z,29.92
2018-07-27T10:53:14.790Z,29.92
2018-07-27T10:54:14.732Z,29.95
2018-07-27T10:55:14.771Z,29.90
2018-07-27T10:56:14.834Z,29.94
2018-07-27T10:57:14.840Z,29.90
2018-07-27T10:58:14.875Z,29.95
2018-07-27T10:59:14.790Z,29.95
2018-07-27T11:00:14.857Z,29.95
2018-07-27T11:01:14.830Z,29.94
2018-07-27T11:02:14.971Z,29.98
2018-07-27T11:03:14.860Z,29.98
2018-07-27T11:04:14.918Z,30.08
2018-07-27T11:05:14.957Z,30.02
2018-07-27T11:06:14.930Z,30.14
2018-07-27T11:07:14.948Z,30.16
2018-07-27T11:08:14.970Z,30.13
2018-07-27T11:09:15.041Z,30.11
2018-07-27T11:10:15.009Z,30.14
2018-07-27T11:11:15.010Z,30.16
2018-07-27T11:12:15.142Z,30.10
2018-07-27T11:13:15.145Z,30.16
2018-07-27T11:14:15.074Z,30.13
2018-07-27T11:15:15.163Z,30.21
2018-07-27T11:16:15.203Z,30.29
2018-07-27T11:17:15.194Z,30.38
2018-07-27T11:18:15.248Z,30.36
2018-07-27T11:19:15.172Z,30.38
2018-07-27T11:20:15.203Z,30.32
2018-07-27T11:21:15.234Z,30.36
2018-07-27T11:22:15.248Z,30.38
2018-07-27T11:23:15.303Z,30.36
2018-07-27T11:24:15.295Z,30.38
2018-07-27T11:25:15.304Z,30.43
2018-07-27T11:26:15.302Z,30.39
2018-07-27T11:27:15.294Z,30.38
2018-07-27T11:28:15.368Z,30.44
2018-07-27T11:29:15.501Z,30.38
2018-07-27T11:30:15.381Z,30.46
2018-07-27T11:31:15.529Z,30.49
2018-07-27T11:32:15.390Z,30.55
2018-07-27T11:33:15.425Z,30.55
2018-07-27T11:34:15.495Z,30.39
2018-07-27T11:35:15.512Z,30.44
2018-07-27T11:36:15.468Z,30.36
2018-07-27T11:37:15.563Z,30.27
2018-07-27T11:38:15.512Z,30.23
2018-07-27T11:39:15.531Z,30.21
2018-07-27T11:40:15.550Z,30.21
2018-07-27T11:41:15.546Z,30.13
2018-07-27T11:42:15.686Z,30.31
2018-07-27T11:43:15.590Z,30.26
2018-07-27T11:44:15.676Z,30.29
2018-07-27T11:45:15.630Z,30.24
2018-07-27T11:46:15.628Z,30.24
2018-07-27T11:47:15.713Z,30.08
2018-07-27T11:48:15.726Z,30.26
2018-07-27T11:49:15.714Z,30.29
2018-07-27T11:50:15.728Z,30.35
2018-07-27T11:51:15.723Z,30.33
2018-07-27T11:52:15.754Z,30.29
2018-07-27T11:53:15.779Z,30.18
2018-07-27T11:54:15.867Z,30.16
2018-07-27T11:55:15.829Z,30.11
2018-07-27T11:56:15.810Z,30.13
2018-07-27T11:57:15.818Z,30.16
2018-07-27T11:58:15.883Z,30.11
2018-07-27T11:59:15.912Z,30.11
2018-07-27T12:00:16.005Z,30.16
2018-07-27T12:01:15.902Z,30.16
2018-07-27T12:02:15.971Z,30.16
2018-07-27T12:03:15.965Z,30.21
2018-07-27T12:04:15.967Z,30.16
2018-07-27T12:05:16.028Z,30.16
2018-07-27T12:06:16.026Z,30.14
2018-07-27T12:07:16.024Z,30.14
2018-07-27T12:08:16.029Z,30.14
2018-07-27T12:09:16.080Z,30.16
2018-07-27T12:10:16.094Z,30.21
2018-07-27T12:11:16.134Z,30.14
2018-07-27T12:12:16.097Z,30.27
2018-07-27T12:13:16.149Z,30.39
2018-07-27T12:14:16.320Z,30.31
2018-07-27T12:15:16.433Z,30.16
2018-07-27T12:16:16.247Z,30.29
2018-07-27T12:17:16.186Z,30.32
2018-07-27T12:18:16.211Z,30.32
2018-07-27T12:19:16.221Z,30.36
2018-07-27T12:20:16.315Z,30.39
2018-07-27T12:21:16.402Z,30.29
2018-07-27T12:22:16.266Z,30.36
2018-07-27T12:23:16.277Z,30.36
2018-07-27T12:24:16.311Z,30.35
2018-07-27T12:25:16.361Z,30.39
2018-07-27T12:26:16.391Z,30.40
2018-07-27T12:27:16.349Z,30.49
2018-07-27T12:28:16.392Z,30.56
2018-07-27T12:29:16.408Z,30.56
2018-07-27T12:30:16.407Z,30.59
2018-07-27T12:31:16.530Z,30.55
2018-07-27T12:32:16.486Z,30.61
2018-07-27T12:33:16.491Z,30.55
2018-07-27T12:34:16.480Z,30.55
2018-07-27T12:35:16.688Z,30.55
2018-07-27T12:36:16.567Z,30.58
2018-07-27T12:37:16.571Z,30.54
2018-07-27T12:38:16.591Z,30.63
2018-07-27T12:39:16.599Z,30.65
2018-07-27T12:40:16.583Z,30.61
2018-07-27T12:41:16.634Z,30.55
2018-07-27T12:42:16.668Z,30.62
2018-07-27T12:43:16.700Z,30.56
2018-07-27T12:44:16.708Z,30.52
2018-07-27T12:45:16.697Z,30.67
2018-07-27T12:46:16.706Z,30.56
2018-07-27T12:47:16.725Z,30.56
2018-07-27T12:48:16.744Z,30.70
2018-07-27T12:49:16.809Z,30.70
2018-07-27T12:50:16.787Z,30.67
2018-07-27T12:51:16.809Z,30.63
2018-07-27T12:52:16.814Z,30.63